sensor_id;sensor_type;location;lat;lon;timestamp;temperature;humidity
18729;DHT22;9493;51.884;5.188;2023-05-10T00:00:38;12.80;99.90
18729;DHT22;9493;51.884;5.188;2023-05-10T00:03:05;12.90;99.90
18729;DHT22;9493;51.884;5.188;2023-05-10T00:05:32;12.80;99.90
18729;DHT22;9493;51.884;5.188;2023-05-10T00:07:59;13.00;99.90
18729;DHT22;9493;51.884;5.188;2023-05-10T00:10:27;12.80;99.90
18729;DHT22;9493;51.884;5.188;2023-05-10T00:12:54;13.00;99.90
18729;DHT22;9493;51.884;5.188;2023-05-10T00:15:21;12.80;99.90
18729;DHT22;9493;51.884;5.188;2023-05-10T00:17:47;12.90;99.90
18729;DHT22;9493;51.884;5.188;2023-05-10T00:20:14;12.80;99.90
18729;DHT22;9493;51.884;5.188;2023-05-10T00:22:41;12.80;99.90
18729;DHT22;9493;51.884;5.188;2023-05-10T00:25:08;13.00;99.90
18729;DHT22;9493;51.884;5.188;2023-05-10T00:27:37;12.80;99.90
18729;DHT22;9493;51.884;5.188;2023-05-10T00:30:04;12.90;99.90
18729;DHT22;9493;51.884;5.188;2023-05-10T00:32:31;12.90;99.90
18729;DHT22;9493;51.884;5.188;2023-05-10T00:34:58;12.90;99.90
18729;DHT22;9493;51.884;5.188;2023-05-10T00:37:25;13.00;99.90
18729;DHT22;9493;51.884;5.188;2023-05-10T00:39:52;12.90;99.90
18729;DHT22;9493;51.884;5.188;2023-05-10T00:42:19;12.90;99.90
18729;DHT22;9493;51.884;5.188;2023-05-10T00:44:47;12.80;99.90
18729;DHT22;9493;51.884;5.188;2023-05-10T00:47:14;12.80;99.90
18729;DHT22;9493;51.884;5.188;2023-05-10T00:49:41;12.70;99.90
18729;DHT22;9493;51.884;5.188;2023-05-10T00:52:09;12.70;99.90
18729;DHT22;9493;51.884;5.188;2023-05-10T00:54:36;12.70;99.90
18729;DHT22;9493;51.884;5.188;2023-05-10T00:57:03;12.60;99.90
18729;DHT22;9493;51.884;5.188;2023-05-10T00:59:30;12.60;99.90
18729;DHT22;9493;51.884;5.188;2023-05-10T01:01:58;12.50;99.90
18729;DHT22;9493;51.884;5.188;2023-05-10T01:04:25;12.60;99.90
18729;DHT22;9493;51.884;5.188;2023-05-10T01:06:52;12.50;99.90
18729;DHT22;9493;51.884;5.188;2023-05-10T01:09:19;12.50;99.90
18729;DHT22;9493;51.884;5.188;2023-05-10T01:11:47;12.50;99.90
18729;DHT22;9493;51.884;5.188;2023-05-10T01:14:17;12.40;99.90
18729;DHT22;9493;51.884;5.188;2023-05-10T01:16:45;12.40;99.90
18729;DHT22;9493;51.884;5.188;2023-05-10T01:19:18;12.40;99.90
18729;DHT22;9493;51.884;5.188;2023-05-10T01:21:51;12.30;99.90
18729;DHT22;9493;51.884;5.188;2023-05-10T01:27:24;12.30;99.90
18729;DHT22;9493;51.884;5.188;2023-05-10T01:30:05;12.30;99.90
18729;DHT22;9493;51.884;5.188;2023-05-10T01:32:40;12.30;99.90
18729;DHT22;9493;51.884;5.188;2023-05-10T01:35:15;12.40;99.90
18729;DHT22;9493;51.884;5.188;2023-05-10T01:37:47;12.30;99.90
18729;DHT22;9493;51.884;5.188;2023-05-10T01:40:23;12.30;99.90
18729;DHT22;9493;51.884;5.188;2023-05-10T01:43:00;12.40;99.90
18729;DHT22;9493;51.884;5.188;2023-05-10T01:45:31;12.30;99.90
18729;DHT22;9493;51.884;5.188;2023-05-10T01:48:05;12.30;99.90
18729;DHT22;9493;51.884;5.188;2023-05-10T01:50:35;12.50;99.90
18729;DHT22;9493;51.884;5.188;2023-05-10T01:53:02;12.40;99.90
18729;DHT22;9493;51.884;5.188;2023-05-10T01:55:34;12.60;99.90
18729;DHT22;9493;51.884;5.188;2023-05-10T01:58:06;12.40;99.90
18729;DHT22;9493;51.884;5.188;2023-05-10T02:00:34;12.50;99.90
18729;DHT22;9493;51.884;5.188;2023-05-10T02:03:06;12.50;99.90
18729;DHT22;9493;51.884;5.188;2023-05-10T02:05:34;12.60;99.90
18729;DHT22;9493;51.884;5.188;2023-05-10T02:08:05;12.50;99.90
18729;DHT22;9493;51.884;5.188;2023-05-10T02:10:32;12.50;99.90
18729;DHT22;9493;51.884;5.188;2023-05-10T02:13:01;12.60;99.90
18729;DHT22;9493;51.884;5.188;2023-05-10T02:15:29;12.50;99.90
18729;DHT22;9493;51.884;5.188;2023-05-10T02:17:57;12.60;99.90
18729;DHT22;9493;51.884;5.188;2023-05-10T02:20:27;12.40;99.90
18729;DHT22;9493;51.884;5.188;2023-05-10T02:22:55;12.50;99.90
18729;DHT22;9493;51.884;5.188;2023-05-10T02:25:23;12.50;99.90
18729;DHT22;9493;51.884;5.188;2023-05-10T02:27:51;12.50;99.90
18729;DHT22;9493;51.884;5.188;2023-05-10T02:30:20;12.60;99.90
18729;DHT22;9493;51.884;5.188;2023-05-10T02:32:48;12.60;99.90
18729;DHT22;9493;51.884;5.188;2023-05-10T02:35:16;12.60;99.90
18729;DHT22;9493;51.884;5.188;2023-05-10T02:37:45;12.60;99.90
18729;DHT22;9493;51.884;5.188;2023-05-10T02:40:14;12.60;99.90
18729;DHT22;9493;51.884;5.188;2023-05-10T02:42:42;12.60;99.90
18729;DHT22;9493;51.884;5.188;2023-05-10T02:45:13;12.60;99.90
18729;DHT22;9493;51.884;5.188;2023-05-10T02:47:41;12.60;99.90
18729;DHT22;9493;51.884;5.188;2023-05-10T02:50:09;12.60;99.90
18729;DHT22;9493;51.884;5.188;2023-05-10T02:52:40;12.60;99.90
18729;DHT22;9493;51.884;5.188;2023-05-10T02:55:12;12.60;99.90
18729;DHT22;9493;51.884;5.188;2023-05-10T02:57:43;12.60;99.90
18729;DHT22;9493;51.884;5.188;2023-05-10T03:00:11;12.60;99.90
18729;DHT22;9493;51.884;5.188;2023-05-10T03:02:37;12.50;99.90
18729;DHT22;9493;51.884;5.188;2023-05-10T03:05:05;12.50;99.90
18729;DHT22;9493;51.884;5.188;2023-05-10T03:07:32;12.50;99.90
18729;DHT22;9493;51.884;5.188;2023-05-10T03:10:00;12.50;99.90
18729;DHT22;9493;51.884;5.188;2023-05-10T03:12:38;12.50;99.90
18729;DHT22;9493;51.884;5.188;2023-05-10T03:15:13;12.50;99.90
18729;DHT22;9493;51.884;5.188;2023-05-10T03:17:54;12.50;99.90
18729;DHT22;9493;51.884;5.188;2023-05-10T03:20:25;12.60;99.90
18729;DHT22;9493;51.884;5.188;2023-05-10T03:22:56;12.60;99.90
18729;DHT22;9493;51.884;5.188;2023-05-10T03:25:24;12.60;99.90
18729;DHT22;9493;51.884;5.188;2023-05-10T03:27:54;12.60;99.90
18729;DHT22;9493;51.884;5.188;2023-05-10T03:30:22;12.60;99.90
18729;DHT22;9493;51.884;5.188;2023-05-10T03:32:49;12.60;99.90
18729;DHT22;9493;51.884;5.188;2023-05-10T03:35:15;12.60;99.90
18729;DHT22;9493;51.884;5.188;2023-05-10T03:37:42;12.60;99.90
18729;DHT22;9493;51.884;5.188;2023-05-10T03:40:09;12.60;99.90
18729;DHT22;9493;51.884;5.188;2023-05-10T03:42:36;12.60;99.90
18729;DHT22;9493;51.884;5.188;2023-05-10T03:45:05;12.60;99.90
18729;DHT22;9493;51.884;5.188;2023-05-10T03:47:32;12.60;99.90
18729;DHT22;9493;51.884;5.188;2023-05-10T03:49:59;12.60;99.90
18729;DHT22;9493;51.884;5.188;2023-05-10T03:52:25;12.60;99.90
18729;DHT22;9493;51.884;5.188;2023-05-10T03:54:52;12.60;99.90
18729;DHT22;9493;51.884;5.188;2023-05-10T03:57:19;12.70;99.90
18729;DHT22;9493;51.884;5.188;2023-05-10T03:59:46;12.60;99.90
18729;DHT22;9493;51.884;5.188;2023-05-10T04:02:14;12.60;99.90
18729;DHT22;9493;51.884;5.188;2023-05-10T04:04:41;12.70;99.90
18729;DHT22;9493;51.884;5.188;2023-05-10T04:07:08;12.60;99.90
18729;DHT22;9493;51.884;5.188;2023-05-10T04:09:35;12.60;99.90
18729;DHT22;9493;51.884;5.188;2023-05-10T04:12:02;12.70;99.90
18729;DHT22;9493;51.884;5.188;2023-05-10T04:14:29;12.70;99.90
18729;DHT22;9493;51.884;5.188;2023-05-10T04:16:56;12.70;99.90
18729;DHT22;9493;51.884;5.188;2023-05-10T04:19:28;12.70;99.90
18729;DHT22;9493;51.884;5.188;2023-05-10T04:21:55;12.70;99.90
18729;DHT22;9493;51.884;5.188;2023-05-10T04:24:21;12.70;99.90
18729;DHT22;9493;51.884;5.188;2023-05-10T04:26:48;12.70;99.90
18729;DHT22;9493;51.884;5.188;2023-05-10T04:29:15;12.70;99.90
18729;DHT22;9493;51.884;5.188;2023-05-10T04:31:42;12.70;99.90
18729;DHT22;9493;51.884;5.188;2023-05-10T04:34:09;12.70;99.90
18729;DHT22;9493;51.884;5.188;2023-05-10T04:36:37;12.70;99.90
18729;DHT22;9493;51.884;5.188;2023-05-10T04:39:04;12.70;99.90
18729;DHT22;9493;51.884;5.188;2023-05-10T04:41:30;12.70;99.90
18729;DHT22;9493;51.884;5.188;2023-05-10T04:43:57;12.80;99.90
18729;DHT22;9493;51.884;5.188;2023-05-10T04:46:24;12.70;99.90
18729;DHT22;9493;51.884;5.188;2023-05-10T04:48:51;12.70;99.90
18729;DHT22;9493;51.884;5.188;2023-05-10T04:51:17;12.80;99.90
18729;DHT22;9493;51.884;5.188;2023-05-10T04:53:47;12.80;99.90
18729;DHT22;9493;51.884;5.188;2023-05-10T04:56:14;12.80;99.90
18729;DHT22;9493;51.884;5.188;2023-05-10T04:58:41;12.80;99.90
18729;DHT22;9493;51.884;5.188;2023-05-10T05:01:08;12.80;99.90
18729;DHT22;9493;51.884;5.188;2023-05-10T05:03:36;12.90;99.90
18729;DHT22;9493;51.884;5.188;2023-05-10T05:06:03;13.00;99.90
18729;DHT22;9493;51.884;5.188;2023-05-10T05:08:30;13.00;99.90
18729;DHT22;9493;51.884;5.188;2023-05-10T05:10:58;13.00;99.90
18729;DHT22;9493;51.884;5.188;2023-05-10T05:13:25;13.00;99.90
18729;DHT22;9493;51.884;5.188;2023-05-10T05:15:52;13.00;99.90
18729;DHT22;9493;51.884;5.188;2023-05-10T05:18:20;13.00;99.90
18729;DHT22;9493;51.884;5.188;2023-05-10T05:20:47;13.10;99.90
18729;DHT22;9493;51.884;5.188;2023-05-10T05:23:13;13.20;99.90
18729;DHT22;9493;51.884;5.188;2023-05-10T05:25:40;13.10;99.90
18729;DHT22;9493;51.884;5.188;2023-05-10T05:28:08;13.10;99.90
18729;DHT22;9493;51.884;5.188;2023-05-10T05:30:35;13.10;99.90
18729;DHT22;9493;51.884;5.188;2023-05-10T05:33:02;13.00;99.90
18729;DHT22;9493;51.884;5.188;2023-05-10T05:35:31;13.20;99.90
18729;DHT22;9493;51.884;5.188;2023-05-10T05:38:02;13.10;99.90
18729;DHT22;9493;51.884;5.188;2023-05-10T05:40:29;13.10;99.90
18729;DHT22;9493;51.884;5.188;2023-05-10T05:42:56;13.00;99.90
18729;DHT22;9493;51.884;5.188;2023-05-10T05:45:24;13.00;99.90
18729;DHT22;9493;51.884;5.188;2023-05-10T05:47:51;13.10;99.90
18729;DHT22;9493;51.884;5.188;2023-05-10T05:50:18;13.10;99.90
18729;DHT22;9493;51.884;5.188;2023-05-10T05:52:45;13.00;99.90
18729;DHT22;9493;51.884;5.188;2023-05-10T05:55:11;12.90;99.90
18729;DHT22;9493;51.884;5.188;2023-05-10T05:57:38;12.90;99.90
18729;DHT22;9493;51.884;5.188;2023-05-10T06:00:06;12.90;99.90
18729;DHT22;9493;51.884;5.188;2023-05-10T06:02:34;12.80;99.90
18729;DHT22;9493;51.884;5.188;2023-05-10T06:05:02;13.00;99.90
18729;DHT22;9493;51.884;5.188;2023-05-10T06:07:28;12.90;99.90
18729;DHT22;9493;51.884;5.188;2023-05-10T06:09:55;13.10;99.90
18729;DHT22;9493;51.884;5.188;2023-05-10T06:12:22;12.90;99.90
18729;DHT22;9493;51.884;5.188;2023-05-10T06:14:49;12.90;99.90
18729;DHT22;9493;51.884;5.188;2023-05-10T06:17:16;12.90;99.90
18729;DHT22;9493;51.884;5.188;2023-05-10T06:19:44;13.00;99.90
18729;DHT22;9493;51.884;5.188;2023-05-10T06:22:11;13.00;99.90
18729;DHT22;9493;51.884;5.188;2023-05-10T06:24:38;12.80;99.90
18729;DHT22;9493;51.884;5.188;2023-05-10T06:27:06;12.80;99.90
18729;DHT22;9493;51.884;5.188;2023-05-10T06:29:33;13.00;99.90
18729;DHT22;9493;51.884;5.188;2023-05-10T06:32:00;12.90;99.90
18729;DHT22;9493;51.884;5.188;2023-05-10T06:34:26;12.90;99.90
18729;DHT22;9493;51.884;5.188;2023-05-10T06:36:54;13.00;99.90
18729;DHT22;9493;51.884;5.188;2023-05-10T06:39:21;12.90;99.90
18729;DHT22;9493;51.884;5.188;2023-05-10T06:41:48;12.90;99.90
18729;DHT22;9493;51.884;5.188;2023-05-10T06:44:15;12.90;99.90
18729;DHT22;9493;51.884;5.188;2023-05-10T06:46:41;12.90;99.90
18729;DHT22;9493;51.884;5.188;2023-05-10T06:49:08;13.00;99.90
18729;DHT22;9493;51.884;5.188;2023-05-10T06:51:35;13.20;99.90
18729;DHT22;9493;51.884;5.188;2023-05-10T06:54:03;13.20;99.90
18729;DHT22;9493;51.884;5.188;2023-05-10T06:56:30;13.10;99.90
18729;DHT22;9493;51.884;5.188;2023-05-10T06:58:56;13.00;99.90
18729;DHT22;9493;51.884;5.188;2023-05-10T07:01:23;13.00;99.90
18729;DHT22;9493;51.884;5.188;2023-05-10T07:03:50;12.80;99.90
18729;DHT22;9493;51.884;5.188;2023-05-10T07:06:17;13.00;99.90
18729;DHT22;9493;51.884;5.188;2023-05-10T07:08:44;12.90;99.90
18729;DHT22;9493;51.884;5.188;2023-05-10T07:11:12;12.90;99.90
18729;DHT22;9493;51.884;5.188;2023-05-10T07:13:39;13.00;99.90
18729;DHT22;9493;51.884;5.188;2023-05-10T07:16:09;12.80;99.90
18729;DHT22;9493;51.884;5.188;2023-05-10T07:18:36;13.00;99.90
18729;DHT22;9493;51.884;5.188;2023-05-10T07:21:03;13.00;99.90
18729;DHT22;9493;51.884;5.188;2023-05-10T07:23:30;13.10;99.90
18729;DHT22;9493;51.884;5.188;2023-05-10T07:25:57;13.10;99.90
18729;DHT22;9493;51.884;5.188;2023-05-10T07:28:26;13.00;99.90
18729;DHT22;9493;51.884;5.188;2023-05-10T07:30:53;13.20;99.90
18729;DHT22;9493;51.884;5.188;2023-05-10T07:33:20;13.40;99.90
18729;DHT22;9493;51.884;5.188;2023-05-10T07:35:46;13.50;99.90
18729;DHT22;9493;51.884;5.188;2023-05-10T07:38:13;13.60;99.90
18729;DHT22;9493;51.884;5.188;2023-05-10T07:40:40;13.90;99.90
18729;DHT22;9493;51.884;5.188;2023-05-10T07:43:07;14.20;99.90
18729;DHT22;9493;51.884;5.188;2023-05-10T07:45:35;14.40;99.90
18729;DHT22;9493;51.884;5.188;2023-05-10T07:48:02;14.80;99.90
18729;DHT22;9493;51.884;5.188;2023-05-10T07:50:28;14.80;99.90
18729;DHT22;9493;51.884;5.188;2023-05-10T07:52:55;15.20;99.90
18729;DHT22;9493;51.884;5.188;2023-05-10T07:55:22;15.20;99.90
18729;DHT22;9493;51.884;5.188;2023-05-10T07:57:49;14.90;99.90
18729;DHT22;9493;51.884;5.188;2023-05-10T08:00:18;14.80;99.90
18729;DHT22;9493;51.884;5.188;2023-05-10T08:02:47;14.90;99.90
18729;DHT22;9493;51.884;5.188;2023-05-10T08:05:14;14.70;99.90
18729;DHT22;9493;51.884;5.188;2023-05-10T08:07:41;14.80;99.90
18729;DHT22;9493;51.884;5.188;2023-05-10T08:10:08;14.50;99.90
18729;DHT22;9493;51.884;5.188;2023-05-10T08:12:36;14.20;99.90
18729;DHT22;9493;51.884;5.188;2023-05-10T08:15:03;14.40;99.90
18729;DHT22;9493;51.884;5.188;2023-05-10T08:17:30;14.40;99.90
18729;DHT22;9493;51.884;5.188;2023-05-10T08:19:59;14.40;99.90
18729;DHT22;9493;51.884;5.188;2023-05-10T08:22:26;14.40;99.90
18729;DHT22;9493;51.884;5.188;2023-05-10T08:24:52;14.40;99.90
18729;DHT22;9493;51.884;5.188;2023-05-10T08:27:19;14.40;99.90
18729;DHT22;9493;51.884;5.188;2023-05-10T08:29:46;14.50;99.90
18729;DHT22;9493;51.884;5.188;2023-05-10T08:32:13;14.70;99.90
18729;DHT22;9493;51.884;5.188;2023-05-10T08:34:40;14.80;99.90
18729;DHT22;9493;51.884;5.188;2023-05-10T08:37:08;15.00;99.90
18729;DHT22;9493;51.884;5.188;2023-05-10T08:39:36;15.00;99.90
18729;DHT22;9493;51.884;5.188;2023-05-10T08:42:04;15.00;99.90
18729;DHT22;9493;51.884;5.188;2023-05-10T08:44:32;15.20;99.90
18729;DHT22;9493;51.884;5.188;2023-05-10T08:47:04;15.40;99.90
18729;DHT22;9493;51.884;5.188;2023-05-10T08:49:31;15.80;99.90
18729;DHT22;9493;51.884;5.188;2023-05-10T08:52:02;16.00;99.90
18729;DHT22;9493;51.884;5.188;2023-05-10T08:54:31;16.30;99.90
18729;DHT22;9493;51.884;5.188;2023-05-10T08:56:58;16.70;99.90
18729;DHT22;9493;51.884;5.188;2023-05-10T08:59:25;16.50;99.90
18729;DHT22;9493;51.884;5.188;2023-05-10T09:01:52;16.30;99.90
18729;DHT22;9493;51.884;5.188;2023-05-10T09:04:21;16.10;99.90
18729;DHT22;9493;51.884;5.188;2023-05-10T09:06:47;15.80;99.90
18729;DHT22;9493;51.884;5.188;2023-05-10T09:09:15;15.70;99.90
18729;DHT22;9493;51.884;5.188;2023-05-10T09:11:43;15.60;99.90
18729;DHT22;9493;51.884;5.188;2023-05-10T09:14:11;15.70;99.90
18729;DHT22;9493;51.884;5.188;2023-05-10T09:16:39;15.50;99.90
18729;DHT22;9493;51.884;5.188;2023-05-10T09:19:06;15.50;99.90
18729;DHT22;9493;51.884;5.188;2023-05-10T09:21:34;15.60;99.90
18729;DHT22;9493;51.884;5.188;2023-05-10T09:24:03;15.30;99.90
18729;DHT22;9493;51.884;5.188;2023-05-10T09:26:30;15.40;99.90
18729;DHT22;9493;51.884;5.188;2023-05-10T09:28:59;15.60;99.90
18729;DHT22;9493;51.884;5.188;2023-05-10T09:31:43;15.70;99.90
18729;DHT22;9493;51.884;5.188;2023-05-10T09:34:10;16.00;99.90
18729;DHT22;9493;51.884;5.188;2023-05-10T09:36:37;16.30;99.90
18729;DHT22;9493;51.884;5.188;2023-05-10T09:39:15;16.40;99.90
18729;DHT22;9493;51.884;5.188;2023-05-10T09:41:43;16.60;99.90
18729;DHT22;9493;51.884;5.188;2023-05-10T09:44:11;16.90;99.90
18729;DHT22;9493;51.884;5.188;2023-05-10T09:46:38;17.00;99.90
18729;DHT22;9493;51.884;5.188;2023-05-10T09:49:05;17.80;99.90
18729;DHT22;9493;51.884;5.188;2023-05-10T09:51:32;18.20;99.90
18729;DHT22;9493;51.884;5.188;2023-05-10T09:54:12;19.00;99.90
18729;DHT22;9493;51.884;5.188;2023-05-10T09:56:39;19.10;99.90
18729;DHT22;9493;51.884;5.188;2023-05-10T09:59:06;18.50;99.90
18729;DHT22;9493;51.884;5.188;2023-05-10T10:01:35;17.60;99.90
18729;DHT22;9493;51.884;5.188;2023-05-10T10:04:03;17.20;99.90
18729;DHT22;9493;51.884;5.188;2023-05-10T10:06:35;16.70;99.90
18729;DHT22;9493;51.884;5.188;2023-05-10T10:09:02;16.40;99.90
18729;DHT22;9493;51.884;5.188;2023-05-10T10:11:29;16.40;99.90
18729;DHT22;9493;51.884;5.188;2023-05-10T10:13:56;16.30;99.90
18729;DHT22;9493;51.884;5.188;2023-05-10T10:16:23;16.40;99.90
18729;DHT22;9493;51.884;5.188;2023-05-10T10:18:52;16.00;99.90
18729;DHT22;9493;51.884;5.188;2023-05-10T10:21:19;16.00;99.90
18729;DHT22;9493;51.884;5.188;2023-05-10T10:23:46;16.00;99.90
18729;DHT22;9493;51.884;5.188;2023-05-10T10:26:13;16.10;99.90
18729;DHT22;9493;51.884;5.188;2023-05-10T10:28:49;15.80;99.90
18729;DHT22;9493;51.884;5.188;2023-05-10T10:31:24;15.60;99.90
18729;DHT22;9493;51.884;5.188;2023-05-10T10:34:00;15.50;99.90
18729;DHT22;9493;51.884;5.188;2023-05-10T10:36:27;15.80;99.90
18729;DHT22;9493;51.884;5.188;2023-05-10T10:39:00;15.80;99.90
18729;DHT22;9493;51.884;5.188;2023-05-10T10:41:31;15.90;99.90
18729;DHT22;9493;51.884;5.188;2023-05-10T10:44:28;16.00;99.90
18729;DHT22;9493;51.884;5.188;2023-05-10T10:47:05;16.40;99.90
18729;DHT22;9493;51.884;5.188;2023-05-10T10:49:38;16.40;99.90
18729;DHT22;9493;51.884;5.188;2023-05-10T10:52:18;16.70;99.90
18729;DHT22;9493;51.884;5.188;2023-05-10T10:55:02;16.90;99.90
18729;DHT22;9493;51.884;5.188;2023-05-10T10:57:33;17.00;99.90
18729;DHT22;9493;51.884;5.188;2023-05-10T11:00:27;16.80;99.90
18729;DHT22;9493;51.884;5.188;2023-05-10T11:02:56;17.00;99.90
18729;DHT22;9493;51.884;5.188;2023-05-10T11:05:37;16.60;99.90
18729;DHT22;9493;51.884;5.188;2023-05-10T11:08:09;16.60;99.90
18729;DHT22;9493;51.884;5.188;2023-05-10T11:10:37;16.40;99.90
18729;DHT22;9493;51.884;5.188;2023-05-10T11:13:05;16.50;99.90
18729;DHT22;9493;51.884;5.188;2023-05-10T11:15:32;15.90;99.90
18729;DHT22;9493;51.884;5.188;2023-05-10T11:17:59;15.90;99.90
18729;DHT22;9493;51.884;5.188;2023-05-10T11:20:32;15.80;99.90
18729;DHT22;9493;51.884;5.188;2023-05-10T11:23:11;15.60;99.90
18729;DHT22;9493;51.884;5.188;2023-05-10T11:25:42;15.40;99.90
18729;DHT22;9493;51.884;5.188;2023-05-10T11:28:10;15.10;99.90
18729;DHT22;9493;51.884;5.188;2023-05-10T11:30:39;15.30;99.90
18729;DHT22;9493;51.884;5.188;2023-05-10T11:33:06;15.20;99.90
18729;DHT22;9493;51.884;5.188;2023-05-10T11:35:38;15.20;99.90
18729;DHT22;9493;51.884;5.188;2023-05-10T11:38:06;15.50;99.90
18729;DHT22;9493;51.884;5.188;2023-05-10T11:40:33;15.40;99.90
18729;DHT22;9493;51.884;5.188;2023-05-10T11:43:00;15.20;99.90
18729;DHT22;9493;51.884;5.188;2023-05-10T11:45:28;15.30;99.90
18729;DHT22;9493;51.884;5.188;2023-05-10T11:47:57;15.30;99.90
18729;DHT22;9493;51.884;5.188;2023-05-10T11:50:24;15.50;99.90
18729;DHT22;9493;51.884;5.188;2023-05-10T11:52:53;15.60;99.90
18729;DHT22;9493;51.884;5.188;2023-05-10T11:55:20;15.80;99.90
18729;DHT22;9493;51.884;5.188;2023-05-10T11:57:49;15.90;99.90
18729;DHT22;9493;51.884;5.188;2023-05-10T12:00:17;15.90;99.90
18729;DHT22;9493;51.884;5.188;2023-05-10T12:02:44;15.90;99.90
18729;DHT22;9493;51.884;5.188;2023-05-10T12:05:11;15.60;99.90
18729;DHT22;9493;51.884;5.188;2023-05-10T12:07:38;16.00;99.90
18729;DHT22;9493;51.884;5.188;2023-05-10T12:10:08;16.00;99.90
18729;DHT22;9493;51.884;5.188;2023-05-10T12:12:37;16.00;99.90
18729;DHT22;9493;51.884;5.188;2023-05-10T12:15:05;16.00;99.90
18729;DHT22;9493;51.884;5.188;2023-05-10T12:17:32;15.80;99.90
18729;DHT22;9493;51.884;5.188;2023-05-10T12:20:13;15.90;99.90
18729;DHT22;9493;51.884;5.188;2023-05-10T12:22:40;15.90;99.90
18729;DHT22;9493;51.884;5.188;2023-05-10T12:25:09;15.70;99.90
18729;DHT22;9493;51.884;5.188;2023-05-10T12:27:36;15.60;99.90
18729;DHT22;9493;51.884;5.188;2023-05-10T12:30:04;15.50;99.90
18729;DHT22;9493;51.884;5.188;2023-05-10T12:32:38;15.50;99.90
18729;DHT22;9493;51.884;5.188;2023-05-10T12:35:07;15.40;99.90
18729;DHT22;9493;51.884;5.188;2023-05-10T12:37:34;15.10;99.90
18729;DHT22;9493;51.884;5.188;2023-05-10T12:40:05;15.00;99.90
18729;DHT22;9493;51.884;5.188;2023-05-10T12:42:35;15.00;99.90
18729;DHT22;9493;51.884;5.188;2023-05-10T12:45:02;14.90;99.90
18729;DHT22;9493;51.884;5.188;2023-05-10T12:47:29;14.90;99.90
18729;DHT22;9493;51.884;5.188;2023-05-10T12:49:56;14.90;99.90
18729;DHT22;9493;51.884;5.188;2023-05-10T12:52:22;14.80;99.90
18729;DHT22;9493;51.884;5.188;2023-05-10T12:54:49;14.70;99.90
18729;DHT22;9493;51.884;5.188;2023-05-10T12:57:17;14.80;99.90
18729;DHT22;9493;51.884;5.188;2023-05-10T12:59:45;14.70;99.90
18729;DHT22;9493;51.884;5.188;2023-05-10T13:02:12;14.70;99.90
18729;DHT22;9493;51.884;5.188;2023-05-10T13:04:40;14.70;99.90
18729;DHT22;9493;51.884;5.188;2023-05-10T13:07:07;14.70;99.90
18729;DHT22;9493;51.884;5.188;2023-05-10T13:09:34;14.90;99.90
18729;DHT22;9493;51.884;5.188;2023-05-10T13:12:01;14.90;99.90
18729;DHT22;9493;51.884;5.188;2023-05-10T13:14:28;15.10;99.90
18729;DHT22;9493;51.884;5.188;2023-05-10T13:16:56;15.00;99.90
18729;DHT22;9493;51.884;5.188;2023-05-10T13:19:23;15.00;99.90
18729;DHT22;9493;51.884;5.188;2023-05-10T13:21:50;15.00;99.90
18729;DHT22;9493;51.884;5.188;2023-05-10T13:24:17;14.90;99.90
18729;DHT22;9493;51.884;5.188;2023-05-10T13:26:44;15.10;99.90
18729;DHT22;9493;51.884;5.188;2023-05-10T13:29:10;15.20;99.90
18729;DHT22;9493;51.884;5.188;2023-05-10T13:31:37;15.20;99.90
18729;DHT22;9493;51.884;5.188;2023-05-10T13:34:05;15.30;99.90
18729;DHT22;9493;51.884;5.188;2023-05-10T13:36:32;15.30;99.90
18729;DHT22;9493;51.884;5.188;2023-05-10T13:38:59;15.30;99.90
18729;DHT22;9493;51.884;5.188;2023-05-10T13:41:27;15.30;99.90
18729;DHT22;9493;51.884;5.188;2023-05-10T13:43:54;15.40;99.90
18729;DHT22;9493;51.884;5.188;2023-05-10T13:46:21;15.10;99.90
18729;DHT22;9493;51.884;5.188;2023-05-10T13:48:48;15.20;99.90
18729;DHT22;9493;51.884;5.188;2023-05-10T13:51:16;15.20;99.90
18729;DHT22;9493;51.884;5.188;2023-05-10T13:53:43;15.10;99.90
18729;DHT22;9493;51.884;5.188;2023-05-10T13:56:10;15.20;99.90
18729;DHT22;9493;51.884;5.188;2023-05-10T13:58:36;15.20;99.90
18729;DHT22;9493;51.884;5.188;2023-05-10T14:01:03;15.30;99.90
18729;DHT22;9493;51.884;5.188;2023-05-10T14:03:31;15.50;99.90
18729;DHT22;9493;51.884;5.188;2023-05-10T14:05:58;15.70;99.90
18729;DHT22;9493;51.884;5.188;2023-05-10T14:08:26;15.40;99.90
18729;DHT22;9493;51.884;5.188;2023-05-10T14:10:53;15.40;99.90
18729;DHT22;9493;51.884;5.188;2023-05-10T14:13:21;15.50;99.90
18729;DHT22;9493;51.884;5.188;2023-05-10T14:15:48;15.50;99.90
18729;DHT22;9493;51.884;5.188;2023-05-10T14:18:15;15.70;99.90
18729;DHT22;9493;51.884;5.188;2023-05-10T14:20:42;15.70;99.90
18729;DHT22;9493;51.884;5.188;2023-05-10T14:23:09;15.70;99.90
18729;DHT22;9493;51.884;5.188;2023-05-10T14:25:37;15.80;99.90
18729;DHT22;9493;51.884;5.188;2023-05-10T14:28:04;16.30;99.90
18729;DHT22;9493;51.884;5.188;2023-05-10T14:30:31;16.50;99.90
18729;DHT22;9493;51.884;5.188;2023-05-10T14:32:59;16.80;99.90
18729;DHT22;9493;51.884;5.188;2023-05-10T14:35:26;17.30;99.90
18729;DHT22;9493;51.884;5.188;2023-05-10T14:37:53;18.10;99.90
18729;DHT22;9493;51.884;5.188;2023-05-10T14:40:20;18.90;99.90
18729;DHT22;9493;51.884;5.188;2023-05-10T14:42:49;20.50;99.90
18729;DHT22;9493;51.884;5.188;2023-05-10T14:45:18;20.70;99.90
18729;DHT22;9493;51.884;5.188;2023-05-10T14:47:44;20.40;99.90
18729;DHT22;9493;51.884;5.188;2023-05-10T14:50:11;19.60;99.90
18729;DHT22;9493;51.884;5.188;2023-05-10T14:52:38;19.10;99.90
18729;DHT22;9493;51.884;5.188;2023-05-10T14:55:06;18.00;99.90
18729;DHT22;9493;51.884;5.188;2023-05-10T14:57:33;17.50;99.90
18729;DHT22;9493;51.884;5.188;2023-05-10T15:00:01;17.10;99.90
18729;DHT22;9493;51.884;5.188;2023-05-10T15:02:28;16.70;99.90
18729;DHT22;9493;51.884;5.188;2023-05-10T15:04:54;16.70;99.90
18729;DHT22;9493;51.884;5.188;2023-05-10T15:07:21;16.60;99.90
18729;DHT22;9493;51.884;5.188;2023-05-10T15:09:48;16.40;99.90
18729;DHT22;9493;51.884;5.188;2023-05-10T15:12:15;16.40;99.90
18729;DHT22;9493;51.884;5.188;2023-05-10T15:14:41;16.40;99.90
18729;DHT22;9493;51.884;5.188;2023-05-10T15:17:10;16.40;99.90
18729;DHT22;9493;51.884;5.188;2023-05-10T15:19:36;16.50;99.90
18729;DHT22;9493;51.884;5.188;2023-05-10T15:22:04;16.20;99.90
18729;DHT22;9493;51.884;5.188;2023-05-10T15:24:31;16.50;99.90
18729;DHT22;9493;51.884;5.188;2023-05-10T15:26:58;16.50;99.90
18729;DHT22;9493;51.884;5.188;2023-05-10T15:29:25;16.70;99.90
18729;DHT22;9493;51.884;5.188;2023-05-10T15:31:52;16.70;99.90
18729;DHT22;9493;51.884;5.188;2023-05-10T15:34:20;17.00;99.90
18729;DHT22;9493;51.884;5.188;2023-05-10T15:36:47;17.30;99.90
18729;DHT22;9493;51.884;5.188;2023-05-10T15:39:13;17.20;99.90
18729;DHT22;9493;51.884;5.188;2023-05-10T15:41:40;17.10;99.90
18729;DHT22;9493;51.884;5.188;2023-05-10T15:44:07;17.00;99.90
18729;DHT22;9493;51.884;5.188;2023-05-10T15:46:34;17.00;99.90
18729;DHT22;9493;51.884;5.188;2023-05-10T15:49:03;17.00;99.90
18729;DHT22;9493;51.884;5.188;2023-05-10T15:51:32;17.20;99.90
18729;DHT22;9493;51.884;5.188;2023-05-10T15:53:59;17.50;99.90